createdAt,value
2018-08-08T00:00:41.310Z,44.60
2018-08-08T00:03:17.733Z,44.80
2018-08-08T00:05:58.502Z,44.90
2018-08-08T00:08:34.823Z,44.90
2018-08-08T00:11:06.911Z,45.00
2018-08-08T00:13:45.433Z,45.10
2018-08-08T00:16:17.378Z,45.50
2018-08-08T00:18:48.831Z,45.70
2018-08-08T00:21:18.795Z,45.10
2018-08-08T00:23:48.774Z,45.60
2018-08-08T00:26:19.368Z,45.70
2018-08-08T00:28:52.704Z,45.70
2018-08-08T00:31:27.222Z,45.90
2018-08-08T00:33:57.641Z,46.10
2018-08-08T00:36:27.849Z,46.50
2018-08-08T00:38:58.238Z,46.70
2018-08-08T00:41:27.822Z,46.80
2018-08-08T00:43:57.825Z,47.00
2018-08-08T00:46:30.292Z,46.90
2018-08-08T00:49:03.187Z,47.20
2018-08-08T00:51:35.786Z,47.70
2018-08-08T00:54:07.528Z,48.00
2018-08-08T00:56:38.625Z,48.20
2018-08-08T00:59:10.489Z,48.30
2018-08-08T01:01:41.407Z,48.40
2018-08-08T01:04:11.324Z,48.50
2018-08-08T01:06:40.765Z,48.80
2018-08-08T01:09:11.541Z,49.00
2018-08-08T01:11:47.648Z,48.90
2018-08-08T01:14:20.441Z,45.00
2018-08-08T01:16:51.684Z,43.20
2018-08-08T01:19:22.952Z,42.80
2018-08-08T01:22:19.779Z,42.80
2018-08-08T01:24:56.423Z,43.00
2018-08-08T01:27:26.122Z,42.40
2018-08-08T01:29:56.693Z,42.40
2018-08-08T01:32:27.778Z,42.80
2018-08-08T01:34:58.454Z,42.90
2018-08-08T01:37:29.070Z,43.40
2018-08-08T01:39:59.597Z,43.70
2018-08-08T01:42:29.799Z,44.00
2018-08-08T01:44:59.751Z,44.00
2018-08-08T01:47:29.489Z,44.10
2018-08-08T01:49:58.966Z,44.30
2018-08-08T01:55:00.412Z,44.70
2018-08-08T01:57:30.319Z,44.70
2018-08-08T02:00:00.184Z,44.80
2018-08-08T02:02:30.744Z,44.90
2018-08-08T02:05:00.941Z,45.00
2018-08-08T02:07:32.054Z,45.10
2018-08-08T02:10:02.154Z,45.40
2018-08-08T02:12:35.482Z,45.60
2018-08-08T02:15:06.016Z,45.80
2018-08-08T02:20:05.155Z,46.10
2018-08-08T02:22:34.787Z,46.40
2018-08-08T02:25:05.101Z,46.40
2018-08-08T02:27:36.310Z,46.50
2018-08-08T02:30:08.569Z,46.60
2018-08-08T02:32:38.654Z,46.60
2018-08-08T02:35:08.468Z,47.30
2018-08-08T02:37:38.133Z,47.60
2018-08-08T02:40:08.626Z,47.30
2018-08-08T02:42:38.259Z,47.60
2018-08-08T02:45:10.096Z,47.50
2018-08-08T02:47:39.569Z,47.80
2018-08-08T02:50:11.091Z,47.90
2018-08-08T02:52:40.610Z,48.20
2018-08-08T02:55:11.319Z,48.80
2018-08-08T02:57:41.653Z,49.90
2018-08-08T03:00:14.097Z,50.20
2018-08-08T03:02:43.897Z,50.40
2018-08-08T03:05:13.715Z,50.80
2018-08-08T03:07:45.273Z,51.70
2018-08-08T03:10:17.982Z,52.10
2018-08-08T03:12:48.167Z,52.90
2018-08-08T03:15:19.520Z,53.70
2018-08-08T03:17:49.662Z,54.00
2018-08-08T03:20:19.529Z,54.20
2018-08-08T03:22:49.862Z,54.30
2018-08-08T03:25:19.819Z,54.70
2018-08-08T03:27:49.686Z,55.00
2018-08-08T03:30:22.353Z,55.50
2018-08-08T03:32:52.524Z,55.60
2018-08-08T03:35:22.370Z,55.60
2018-08-08T03:37:52.038Z,55.80
2018-08-08T03:40:21.597Z,56.00
2018-08-08T03:42:51.204Z,56.30
2018-08-08T03:45:20.984Z,56.50
2018-08-08T03:47:51.192Z,57.10
2018-08-08T03:50:21.807Z,57.80
2018-08-08T03:52:51.703Z,58.50
2018-08-08T03:55:21.245Z,59.80
2018-08-08T03:57:51.194Z,62.50
2018-08-08T04:00:22.075Z,65.70
2018-08-08T04:05:21.138Z,70.90
2018-08-08T04:07:50.996Z,72.90
2018-08-08T04:10:21.577Z,74.10
2018-08-08T04:12:51.527Z,74.90
2018-08-08T04:15:21.006Z,75.40
2018-08-08T04:17:50.628Z,76.50
2018-08-08T04:20:20.720Z,77.60
2018-08-08T04:23:08.117Z,78.90
2018-08-08T04:25:53.420Z,80.60
2018-08-08T04:28:23.262Z,81.30
2018-08-08T04:30:53.090Z,80.80
2018-08-08T04:33:22.630Z,84.30
2018-08-08T04:38:21.300Z,93.20
2018-08-08T04:40:51.534Z,95.90
2018-08-08T04:43:21.208Z,98.80
2018-08-08T04:45:51.253Z,99.90
2018-08-08T04:48:20.895Z,99.90
2018-08-08T04:50:51.058Z,99.90
2018-08-08T04:53:21.137Z,99.90
2018-08-08T04:55:51.785Z,99.90
2018-08-08T04:58:21.240Z,99.90
2018-08-08T05:00:51.393Z,99.90
2018-08-08T05:03:21.861Z,99.90
2018-08-08T05:05:51.402Z,99.90
2018-08-08T05:08:24.934Z,99.90
2018-08-08T05:10:54.693Z,99.90
2018-08-08T05:13:54.759Z,99.90
2018-08-08T05:16:26.140Z,99.90
2018-08-08T05:18:57.597Z,99.90
2018-08-08T05:21:29.884Z,99.90
2018-08-08T05:23:59.625Z,99.90
2018-08-08T05:26:29.409Z,99.90
2018-08-08T05:28:58.837Z,99.90
2018-08-08T05:31:28.673Z,99.90
2018-08-08T05:33:59.407Z,99.90
2018-08-08T05:36:28.960Z,99.90
2018-08-08T05:39:01.478Z,99.90
2018-08-08T05:41:31.031Z,99.90
2018-08-08T05:44:00.521Z,99.90
2018-08-08T05:46:30.093Z,99.90
2018-08-08T05:48:59.730Z,99.90
2018-08-08T05:51:29.491Z,99.90
2018-08-08T05:53:58.941Z,99.90
2018-08-08T05:56:28.418Z,99.90
2018-08-08T05:58:58.331Z,99.90
2018-08-08T06:01:27.976Z,99.90
2018-08-08T06:03:58.341Z,99.90
2018-08-08T06:06:31.590Z,99.90
2018-08-08T06:09:02.591Z,99.90
2018-08-08T06:11:32.531Z,99.90
2018-08-08T06:14:02.484Z,99.90
2018-08-08T06:16:36.372Z,99.90
2018-08-08T06:19:06.239Z,99.90
2018-08-08T06:21:35.861Z,99.90
2018-08-08T06:24:07.320Z,99.90
2018-08-08T06:26:37.834Z,99.90
2018-08-08T06:29:07.422Z,99.90
2018-08-08T06:31:42.367Z,99.90
2018-08-08T06:34:11.942Z,99.90
2018-08-08T06:36:41.708Z,99.90
2018-08-08T06:39:15.068Z,99.90
2018-08-08T06:41:45.115Z,99.90
2018-08-08T06:44:19.052Z,99.90
2018-08-08T06:46:50.902Z,99.90
2018-08-08T06:49:20.766Z,99.90
2018-08-08T06:51:50.836Z,99.90
2018-08-08T06:54:21.355Z,99.90
2018-08-08T06:56:52.304Z,99.90
2018-08-08T06:59:22.549Z,99.90
2018-08-08T07:01:52.499Z,99.90
2018-08-08T07:04:22.142Z,99.90
2018-08-08T07:06:52.042Z,99.90
2018-08-08T07:09:22.419Z,99.90
2018-08-08T07:11:52.507Z,99.90
2018-08-08T07:14:26.458Z,99.90
2018-08-08T07:16:56.992Z,99.90
2018-08-08T07:19:27.819Z,98.80
2018-08-08T07:21:58.414Z,97.70
2018-08-08T07:24:28.654Z,96.50
2018-08-08T07:26:59.395Z,94.10
2018-08-08T07:29:31.525Z,93.60
2018-08-08T07:32:02.123Z,94.10
2018-08-08T07:34:32.485Z,92.10
2018-08-08T07:37:04.050Z,90.70
2018-08-08T07:39:35.744Z,85.40
2018-08-08T07:42:07.748Z,84.40
2018-08-08T07:44:37.993Z,81.80
2018-08-08T07:47:12.653Z,78.60
2018-08-08T07:49:43.255Z,78.70
2018-08-08T07:52:13.750Z,79.10
2018-08-08T07:54:52.535Z,81.50
2018-08-08T08:00:46.921Z,84.20
2018-08-08T08:03:18.652Z,87.20
2018-08-08T08:05:57.640Z,90.20
2018-08-08T08:08:35.056Z,91.10
2018-08-08T08:11:06.776Z,92.20
2018-08-08T08:13:37.249Z,92.90
2018-08-08T08:16:07.673Z,92.10
2018-08-08T08:18:38.044Z,92.40
2018-08-08T08:21:17.031Z,91.10
2018-08-08T08:23:54.101Z,90.50
2018-08-08T08:26:24.243Z,86.90
2018-08-08T08:28:53.812Z,83.00
2018-08-08T08:31:23.955Z,80.20
2018-08-08T08:33:53.622Z,74.10
2018-08-08T08:36:23.274Z,73.20
2018-08-08T08:38:53.849Z,71.50
2018-08-08T08:41:23.775Z,71.40
2018-08-08T08:43:54.674Z,68.60
2018-08-08T08:46:25.723Z,62.30
2018-08-08T08:48:56.061Z,62.50
2018-08-08T08:51:29.030Z,63.10
2018-08-08T08:54:10.737Z,65.70
2018-08-08T08:56:41.195Z,59.90
2018-08-08T08:59:12.083Z,59.10
2018-08-08T09:01:41.972Z,59.40
2018-08-08T09:04:12.392Z,58.60
2018-08-08T09:06:43.104Z,61.20
2018-08-08T09:09:15.591Z,59.10
2018-08-08T09:11:46.284Z,56.60
2018-08-08T09:14:21.643Z,55.90
2018-08-08T09:16:56.255Z,59.60
2018-08-08T09:19:29.492Z,62.90
2018-08-08T09:22:08.632Z,66.60
2018-08-08T09:24:57.442Z,70.10
2018-08-08T09:30:13.745Z,72.30
2018-08-08T09:32:45.915Z,74.30
2018-08-08T09:35:21.381Z,75.50
2018-08-08T09:37:55.583Z,75.90
2018-08-08T09:40:27.230Z,75.30
2018-08-08T09:43:00.786Z,74.70
2018-08-08T09:45:31.060Z,73.10
2018-08-08T09:48:07.646Z,68.00
2018-08-08T09:50:38.301Z,66.80
2018-08-08T09:53:17.363Z,67.10
2018-08-08T09:55:54.548Z,70.70
2018-08-08T09:58:27.566Z,74.80
2018-08-08T10:01:17.639Z,73.50
2018-08-08T10:04:21.464Z,67.50
2018-08-08T10:10:21.664Z,66.20
2018-08-08T10:13:06.105Z,72.10
2018-08-08T10:18:49.293Z,67.10
2018-08-08T10:21:19.824Z,66.30
2018-08-08T10:23:53.950Z,68.70
2018-08-08T10:26:25.913Z,69.80
2018-08-08T10:28:56.144Z,71.00
2018-08-08T10:31:35.111Z,73.00
2018-08-08T10:34:17.688Z,72.60
2018-08-08T10:37:02.759Z,70.10
2018-08-08T10:39:38.695Z,60.40
2018-08-08T10:42:09.113Z,53.70
2018-08-08T10:44:39.880Z,49.90
2018-08-08T10:47:10.520Z,46.10
2018-08-08T10:49:42.250Z,44.80
2018-08-08T10:52:13.351Z,44.50
2018-08-08T10:54:43.658Z,45.10
2018-08-08T10:57:16.436Z,46.50
2018-08-08T10:59:52.971Z,45.90
2018-08-08T11:02:26.712Z,46.70
2018-08-08T11:04:57.441Z,46.80
2018-08-08T11:07:27.935Z,49.50
2018-08-08T11:09:59.272Z,55.00
2018-08-08T11:12:30.416Z,58.90
2018-08-08T11:15:06.602Z,61.70
2018-08-08T11:17:36.757Z,63.40
2018-08-08T11:20:15.622Z,66.00
2018-08-08T11:22:56.180Z,67.60
2018-08-08T11:25:29.843Z,69.10
2018-08-08T11:28:00.621Z,71.30
2018-08-08T11:30:32.914Z,74.60
2018-08-08T11:33:05.572Z,75.00
2018-08-08T11:35:36.148Z,75.90
2018-08-08T11:38:12.249Z,75.80
2018-08-08T11:40:43.298Z,76.40
2018-08-08T11:43:17.250Z,75.50
2018-08-08T11:46:12.651Z,74.40
2018-08-08T11:48:42.771Z,71.70
2018-08-08T11:51:13.052Z,72.90
2018-08-08T11:53:43.739Z,71.80
2018-08-08T11:56:14.802Z,70.40
2018-08-08T11:58:45.997Z,69.20
2018-08-08T12:01:34.806Z,69.20
2018-08-08T12:04:27.285Z,69.50
2018-08-08T12:07:14.378Z,70.00
2018-08-08T12:09:51.692Z,71.10
2018-08-08T12:12:43.778Z,66.70
2018-08-08T12:18:06.542Z,62.10
2018-08-08T12:20:39.668Z,62.40
2018-08-08T12:23:11.885Z,61.30
2018-08-08T12:25:45.289Z,60.20
2018-08-08T12:28:17.289Z,62.50
2018-08-08T12:30:47.149Z,62.70
2018-08-08T12:33:46.300Z,60.50
2018-08-08T12:36:30.633Z,56.70
2018-08-08T12:39:03.003Z,52.40
2018-08-08T12:41:34.107Z,49.00
2018-08-08T13:12:37.618Z,54.90
2018-08-08T13:15:13.082Z,52.30
2018-08-08T13:17:43.370Z,50.60
2018-08-08T13:20:14.601Z,51.20
2018-08-08T13:22:54.781Z,51.50
2018-08-08T13:25:27.571Z,50.80
2018-08-08T13:28:02.739Z,48.80
2018-08-08T13:30:35.713Z,49.20
2018-08-08T13:33:10.262Z,48.80
2018-08-08T13:35:44.765Z,51.50
2018-08-08T13:38:17.813Z,53.20
2018-08-08T13:40:59.589Z,54.20
2018-08-08T13:46:16.701Z,54.40
2018-08-08T13:48:54.138Z,54.40
2018-08-08T13:51:23.888Z,53.40
2018-08-08T13:53:55.889Z,54.50
2018-08-08T13:56:25.886Z,56.20
2018-08-08T13:58:58.091Z,58.50
2018-08-08T14:01:43.125Z,61.10
2018-08-08T14:04:13.187Z,61.60
2018-08-08T14:10:23.790Z,64.80
2018-08-08T14:13:08.137Z,63.20
2018-08-08T14:15:50.183Z,61.20
2018-08-08T14:18:28.510Z,61.50
2018-08-08T14:21:11.725Z,64.10
2018-08-08T14:23:45.793Z,63.60
2018-08-08T14:26:16.763Z,64.60
2018-08-08T14:28:51.780Z,63.70
2018-08-08T14:31:35.288Z,64.00
2018-08-08T14:34:12.171Z,64.30
2018-08-08T14:36:43.076Z,64.70
2018-08-08T14:39:17.360Z,65.20
2018-08-08T14:41:59.676Z,65.00
2018-08-08T14:44:55.911Z,64.70
2018-08-08T14:47:28.901Z,66.80
2018-08-08T14:50:01.103Z,67.70
2018-08-08T14:52:55.123Z,68.30
2018-08-08T14:56:07.058Z,67.40
2018-08-08T14:58:40.443Z,66.40
2018-08-08T15:01:14.291Z,66.50
2018-08-08T15:03:59.553Z,66.50
2018-08-08T15:06:36.524Z,67.10
2018-08-08T15:09:16.316Z,65.80
2018-08-08T15:14:45.110Z,65.20
2018-08-08T15:17:18.579Z,65.80
2018-08-08T15:19:50.944Z,66.70
2018-08-08T15:25:33.745Z,68.30
2018-08-08T15:28:22.408Z,67.70
2018-08-08T15:31:03.077Z,66.80
2018-08-08T15:36:21.344Z,67.90
2018-08-08T15:39:01.634Z,70.20
2018-08-08T15:41:41.427Z,71.40
2018-08-08T15:44:16.319Z,71.60
2018-08-08T15:46:58.293Z,71.60
2018-08-08T15:49:38.690Z,71.20
2018-08-08T15:52:21.532Z,70.70
2018-08-08T15:55:21.864Z,71.60
2018-08-08T15:58:25.564Z,70.90
2018-08-08T16:01:17.389Z,71.70
2018-08-08T16:03:52.738Z,72.80
2018-08-08T16:06:28.075Z,72.10
2018-08-08T16:09:08.494Z,70.90
2018-08-08T16:11:54.361Z,71.60
2018-08-08T16:14:33.899Z,70.40
2018-08-08T16:17:08.054Z,69.80
2018-08-08T16:19:41.008Z,70.40
2018-08-08T16:22:16.789Z,71.70
2018-08-08T16:25:19.222Z,69.20
2018-08-08T16:28:13.356Z,68.60
2018-08-08T16:31:00.433Z,67.30
2018-08-08T16:33:44.233Z,66.00
2018-08-08T16:36:17.737Z,64.30
2018-08-08T16:38:49.973Z,64.40
2018-08-08T16:41:21.078Z,65.30
2018-08-08T16:43:57.113Z,65.00
2018-08-08T16:46:38.318Z,65.40
2018-08-08T16:49:42.453Z,64.40
2018-08-08T16:52:45.243Z,64.50
2018-08-08T16:58:18.222Z,66.90
2018-08-08T17:00:51.958Z,67.50
2018-08-08T17:03:25.456Z,65.90
2018-08-08T17:05:57.381Z,65.10
2018-08-08T17:08:33.062Z,66.20
2018-08-08T17:11:07.070Z,66.10
2018-08-08T17:13:43.352Z,65.40
2018-08-08T17:16:16.055Z,64.50
2018-08-08T17:18:46.415Z,64.10
2018-08-08T17:21:17.563Z,64.40
2018-08-08T17:23:50.378Z,64.70
2018-08-08T17:26:44.668Z,64.20
2018-08-08T17:32:26.882Z,65.60
2018-08-08T17:41:13.435Z,64.20
2018-08-08T17:43:55.252Z,63.10
2018-08-08T17:47:19.497Z,62.30
2018-08-08T17:50:03.161Z,63.00
2018-08-08T17:53:17.456Z,63.40
2018-08-08T17:58:56.842Z,62.00
2018-08-08T18:01:56.534Z,62.30
2018-08-08T18:04:35.648Z,63.00
2018-08-08T18:13:35.505Z,63.00
2018-08-08T18:16:15.714Z,62.90
2018-08-08T18:18:48.180Z,63.10
2018-08-08T18:24:54.736Z,63.60
2018-08-08T18:27:41.619Z,63.90
2018-08-08T18:30:46.752Z,63.80
2018-08-08T18:46:22.997Z,66.90
2018-08-08T18:53:41.897Z,65.20
2018-08-08T18:57:00.377Z,65.40
2018-08-08T18:59:58.011Z,65.10
2018-08-08T19:02:53.934Z,67.10
2018-08-08T19:06:12.457Z,65.60
2018-08-08T19:12:18.316Z,65.90
2018-08-08T19:14:50.482Z,64.70
2018-08-08T19:17:23.061Z,65.10
2018-08-08T19:20:25.063Z,63.50
2018-08-08T19:22:55.775Z,64.00
2018-08-08T19:25:43.501Z,64.80
2018-08-08T19:29:00.886Z,64.30
2018-08-08T19:31:51.266Z,65.70
2018-08-08T19:34:26.117Z,66.90
2018-08-08T19:37:15.980Z,68.20
2018-08-08T19:42:53.855Z,68.90
2018-08-08T19:45:38.603Z,69.90
2018-08-08T19:50:57.082Z,69.40
2018-08-08T19:56:44.252Z,69.20
2018-08-08T20:02:22.521Z,68.60
2018-08-08T20:04:58.185Z,68.90
2018-08-08T20:07:45.676Z,68.60
2018-08-08T20:10:25.832Z,68.70
2018-08-08T20:13:06.059Z,68.40
2018-08-08T20:15:44.225Z,68.40
2018-08-08T20:18:21.077Z,68.90
2018-08-08T20:21:19.402Z,69.60
2018-08-08T20:24:15.685Z,69.60
2018-08-08T20:26:59.537Z,70.60
2018-08-08T20:29:50.376Z,71.10
2018-08-08T20:32:25.559Z,70.20
2018-08-08T20:35:01.862Z,70.20
2018-08-08T20:37:41.529Z,70.40
2018-08-08T20:40:19.510Z,70.30
2018-08-08T20:42:50.809Z,70.10
2018-08-08T20:45:24.203Z,69.70
2018-08-08T20:48:14.493Z,70.60
2018-08-08T20:51:09.542Z,71.10
2018-08-08T20:53:54.919Z,71.60
2018-08-08T20:56:26.918Z,70.80
2018-08-08T20:58:57.987Z,71.00
2018-08-08T21:01:31.648Z,70.60
2018-08-08T21:04:11.702Z,70.60
2018-08-08T21:06:45.078Z,71.40
2018-08-08T21:09:17.211Z,71.10
2018-08-08T21:11:49.114Z,71.40
2018-08-08T21:14:21.154Z,71.60
2018-08-08T21:16:56.175Z,71.50
2018-08-08T21:19:28.329Z,71.50
2018-08-08T21:22:07.991Z,71.80
2018-08-08T21:25:02.874Z,71.20
2018-08-08T21:27:34.826Z,71.00
2018-08-08T21:30:08.134Z,72.30
2018-08-08T21:32:50.863Z,71.60
2018-08-08T21:35:35.490Z,71.70
2018-08-08T21:38:11.134Z,72.40
2018-08-08T21:40:42.274Z,71.90
2018-08-08T21:43:36.364Z,73.30
2018-08-08T21:52:04.306Z,74.80
2018-08-08T21:54:46.640Z,75.80
2018-08-08T21:57:26.971Z,76.30
2018-08-08T22:00:09.680Z,76.80
2018-08-08T22:02:55.832Z,76.80
2018-08-08T22:05:43.207Z,77.20
2018-08-08T22:08:24.850Z,77.70
2018-08-08T22:11:15.548Z,78.10
2018-08-08T22:13:59.184Z,78.50
2018-08-08T22:16:44.012Z,78.50
2018-08-08T22:19:45.643Z,78.10
2018-08-08T22:22:22.942Z,78.20
2018-08-08T22:24:53.422Z,78.80
2018-08-08T22:27:23.337Z,78.90
2018-08-08T22:29:54.172Z,79.10
2018-08-08T22:35:11.840Z,79.40
2018-08-08T22:41:38.094Z,79.80
2018-08-08T22:44:08.232Z,79.40
2018-08-08T22:46:40.311Z,79.60
2018-08-08T22:49:13.118Z,79.40
2018-08-08T22:51:43.072Z,79.60
2018-08-08T22:54:13.161Z,79.40
2018-08-08T22:56:44.328Z,79.50
2018-08-08T22:59:21.327Z,79.30
2018-08-08T23:01:52.881Z,79.50
2018-08-08T23:04:26.769Z,79.60
2018-08-08T23:07:01.431Z,80.00
2018-08-08T23:09:37.876Z,80.50
2018-08-08T23:12:08.358Z,80.90
2018-08-08T23:14:39.233Z,81.30
2018-08-08T23:17:10.337Z,81.60
2018-08-08T23:19:41.534Z,81.90
2018-08-08T23:22:12.722Z,82.10
2018-08-08T23:24:44.648Z,82.30
2018-08-08T23:27:16.095Z,82.70
2018-08-08T23:29:46.381Z,83.00
2018-08-08T23:32:16.672Z,83.30
2018-08-08T23:34:47.257Z,83.30
2018-08-08T23:37:17.674Z,83.50
2018-08-08T23:39:52.391Z,83.50
2018-08-08T23:42:23.344Z,84.00
2018-08-08T23:44:53.737Z,83.30
2018-08-08T23:47:23.291Z,83.10
2018-08-08T23:49:53.757Z,82.90
2018-08-08T23:52:24.029Z,83.00
2018-08-08T23:54:54.727Z,83.30
2018-08-08T23:57:24.712Z,83.20
2018-08-08T23:59:54.502Z,82.80
